createdAt,value
2023-05-08T00:00:34.042Z,12.08
2023-05-08T00:05:35.851Z,12.02
2023-05-08T00:10:40.214Z,12.01
2023-05-08T00:15:46.492Z,11.99
2023-05-08T00:20:48.199Z,11.92
2023-05-08T00:25:49.937Z,11.83
2023-05-08T00:30:52.358Z,11.75
2023-05-08T00:36:01.976Z,11.70
2023-05-08T00:41:06.035Z,11.66
2023-05-08T00:46:09.927Z,11.61
2023-05-08T00:51:14.512Z,11.55
2023-05-08T00:56:21.292Z,11.51
2023-05-08T01:01:23.836Z,11.49
2023-05-08T01:06:29.477Z,11.43
2023-05-08T01:11:37.031Z,11.39
2023-05-08T01:17:07.179Z,11.34
2023-05-08T01:22:26.456Z,11.29
2023-05-08T01:28:05.012Z,11.26
2023-05-08T01:33:30.629Z,11.21
2023-05-08T01:38:42.612Z,11.17
2023-05-08T01:44:09.736Z,11.16
2023-05-08T01:49:32.810Z,11.08
2023-05-08T01:54:41.397Z,11.06
2023-05-08T01:59:44.584Z,11.06
2023-05-08T02:04:47.132Z,11.03
2023-05-08T02:09:49.088Z,11.01
2023-05-08T02:14:53.366Z,10.99
2023-05-08T02:19:58.472Z,10.93
2023-05-08T02:25:01.212Z,10.87
2023-05-08T02:30:06.568Z,10.78
2023-05-08T02:35:09.545Z,10.61
2023-05-08T02:40:12.359Z,10.41
2023-05-08T02:45:14.625Z,10.22
2023-05-08T02:50:51.676Z,10.04
2023-05-08T02:55:58.159Z,9.88
2023-05-08T03:01:06.551Z,9.76
2023-05-08T03:06:13.340Z,9.67
2023-05-08T03:11:21.736Z,9.59
2023-05-08T03:16:25.718Z,9.54
2023-05-08T03:21:29.542Z,9.44
2023-05-08T03:26:34.387Z,9.34
2023-05-08T03:31:39.526Z,9.27
2023-05-08T03:36:42.967Z,9.24
2023-05-08T03:41:45.866Z,9.18
2023-05-08T03:46:50.887Z,9.13
2023-05-08T03:51:56.405Z,9.58
2023-05-08T03:56:58.275Z,9.28
2023-05-08T04:02:30.837Z,9.57
2023-05-08T04:07:39.557Z,9.29
2023-05-08T04:12:56.862Z,9.19
2023-05-08T04:18:15.009Z,9.07
2023-05-08T04:23:21.643Z,9.02
2023-05-08T04:28:25.108Z,9.00
2023-05-08T04:33:29.619Z,8.98
2023-05-08T04:38:36.954Z,8.99
2023-05-08T04:43:42.107Z,9.09
2023-05-08T04:48:43.957Z,9.21
2023-05-08T04:53:46.066Z,9.27
2023-05-08T04:58:48.104Z,9.33
2023-05-08T05:03:53.077Z,9.24
2023-05-08T05:09:02.716Z,9.17
2023-05-08T05:14:04.740Z,9.16
2023-05-08T05:19:07.140Z,9.17
2023-05-08T05:24:09.450Z,9.31
2023-05-08T05:29:11.432Z,9.52
2023-05-08T05:34:15.691Z,9.57
2023-05-08T05:39:17.542Z,9.71
2023-05-08T05:44:19.430Z,9.76
2023-05-08T05:49:23.582Z,9.82
2023-05-08T05:54:25.622Z,10.03
2023-05-08T05:59:30.093Z,10.23
2023-05-08T06:04:34.721Z,10.29
2023-05-08T06:09:38.771Z,10.34
2023-05-08T06:14:40.566Z,10.43
2023-05-08T06:19:42.383Z,10.62
2023-05-08T06:24:46.629Z,10.77
2023-05-08T06:29:53.086Z,10.85
2023-05-08T06:34:57.142Z,10.81
2023-05-08T06:40:11.624Z,10.77
2023-05-08T06:45:19.608Z,10.61
2023-05-08T06:50:21.446Z,10.50
2023-05-08T06:55:26.523Z,10.49
2023-05-08T07:00:28.304Z,10.50
2023-05-08T07:05:32.573Z,10.56
2023-05-08T07:10:38.805Z,10.77
2023-05-08T07:15:40.674Z,11.04
2023-05-08T07:20:42.461Z,11.20
2023-05-08T07:25:46.437Z,11.40
2023-05-08T07:30:48.207Z,11.55
2023-05-08T07:35:54.681Z,11.65
2023-05-08T07:41:02.126Z,11.66
2023-05-08T07:46:06.161Z,11.82
2023-05-08T07:51:11.229Z,12.01
2023-05-08T07:56:15.751Z,12.07
2023-05-08T08:01:18.268Z,12.32
2023-05-08T08:06:22.487Z,12.57
2023-05-08T08:11:24.260Z,12.98
2023-05-08T08:16:26.982Z,13.24
2023-05-08T08:21:28.897Z,13.51
2023-05-08T08:26:33.535Z,13.80
2023-05-08T08:31:37.770Z,14.00
2023-05-08T08:36:42.037Z,14.16
2023-05-08T08:41:44.009Z,14.30
2023-05-08T08:46:51.212Z,14.14
2023-05-08T08:52:01.920Z,14.53
2023-05-08T08:57:07.999Z,14.71
2023-05-08T09:02:17.903Z,14.90
2023-05-08T09:07:22.841Z,15.02
2023-05-08T09:12:27.037Z,15.15
2023-05-08T09:17:28.832Z,15.29
2023-05-08T09:22:30.658Z,15.58
2023-05-08T09:27:33.119Z,15.44
2023-05-08T09:32:37.907Z,15.73
2023-05-08T09:37:41.617Z,15.95
2023-05-08T09:42:43.854Z,15.83
2023-05-08T09:47:48.290Z,16.08
2023-05-08T09:52:54.827Z,16.34
2023-05-08T09:58:00.000Z,16.54
2023-05-08T10:03:03.255Z,16.97
2023-05-08T10:08:26.925Z,17.47
2023-05-08T10:13:31.137Z,17.76
2023-05-08T10:18:37.846Z,18.06
2023-05-08T10:23:40.162Z,18.61
2023-05-08T10:29:14.968Z,19.01
2023-05-08T10:34:22.952Z,19.19
2023-05-08T10:39:25.806Z,19.20
2023-05-08T10:44:29.512Z,19.33
2023-05-08T10:49:42.676Z,19.42
2023-05-08T10:55:04.351Z,19.90
2023-05-08T11:00:14.302Z,20.20
2023-05-08T11:05:17.225Z,20.53
2023-05-08T11:10:25.174Z,20.80
2023-05-08T11:15:42.130Z,20.93
2023-05-08T11:21:18.326Z,21.17
2023-05-08T11:26:22.933Z,21.29
2023-05-08T11:31:24.882Z,21.44
2023-05-08T11:36:29.573Z,21.28
2023-05-08T11:41:31.296Z,21.34
2023-05-08T11:46:50.664Z,21.62
2023-05-08T11:51:58.169Z,21.85
2023-05-08T11:57:03.200Z,22.14
2023-05-08T12:02:09.496Z,23.37
2023-05-08T12:07:14.062Z,24.07
2023-05-08T12:12:15.806Z,24.52
2023-05-08T12:17:19.153Z,25.36
2023-05-08T12:22:21.975Z,26.17
2023-05-08T12:27:27.222Z,26.40
2023-05-08T12:32:31.229Z,27.01
2023-05-08T12:37:35.503Z,28.24
2023-05-08T12:42:47.853Z,29.11
2023-05-08T12:47:54.290Z,29.11
2023-05-08T12:53:03.464Z,30.50
2023-05-08T12:58:15.258Z,31.28
2023-05-08T13:03:30.403Z,30.33
2023-05-08T13:08:37.197Z,31.29
2023-05-08T13:13:41.393Z,32.23
2023-05-08T13:18:45.668Z,32.47
2023-05-08T13:23:49.778Z,32.34
2023-05-08T13:28:52.132Z,31.51
2023-05-08T13:33:55.101Z,32.49
2023-05-08T13:38:57.463Z,33.42
2023-05-08T13:43:59.147Z,32.90
2023-05-08T13:49:00.886Z,34.33
2023-05-08T13:54:02.731Z,35.79
2023-05-08T13:59:04.593Z,36.42
2023-05-08T14:04:11.168Z,36.38
2023-05-08T14:09:15.346Z,37.44
2023-05-08T14:14:19.496Z,36.68
2023-05-08T14:19:23.472Z,38.33
2023-05-08T14:24:27.302Z,39.07
2023-05-08T14:29:29.101Z,39.58
2023-05-08T14:34:35.706Z,40.38
2023-05-08T14:39:37.611Z,38.82
2023-05-08T14:44:47.087Z,38.17
2023-05-08T14:49:48.871Z,38.19
2023-05-08T14:54:53.665Z,38.34
2023-05-08T15:00:00.212Z,38.24
2023-05-08T15:05:10.979Z,38.56
2023-05-08T15:10:21.340Z,38.17
2023-05-08T15:15:25.401Z,39.22
2023-05-08T15:20:27.093Z,39.43
2023-05-08T15:25:31.058Z,39.05
2023-05-08T15:30:32.793Z,39.04
2023-05-08T15:35:34.621Z,39.78
2023-05-08T15:40:41.622Z,39.53
2023-05-08T15:45:43.376Z,40.51
2023-05-08T15:50:45.040Z,40.38
2023-05-08T15:55:49.152Z,40.57
2023-05-08T16:00:53.531Z,40.36
2023-05-08T16:05:55.511Z,40.53
2023-05-08T16:10:57.264Z,41.09
2023-05-08T16:16:06.267Z,41.11
2023-05-08T16:21:12.232Z,40.59
2023-05-08T16:26:16.681Z,40.46
2023-05-08T16:31:20.815Z,40.30
2023-05-08T16:36:22.681Z,39.86
2023-05-08T16:41:27.948Z,36.82
2023-05-08T16:46:34.317Z,34.96
2023-05-08T16:51:36.061Z,33.81
2023-05-08T16:56:37.859Z,31.45
2023-05-08T17:01:42.131Z,29.79
2023-05-08T17:06:46.199Z,28.83
2023-05-08T17:11:50.379Z,28.08
2023-05-08T17:16:54.225Z,27.49
2023-05-08T17:21:57.554Z,27.03
2023-05-08T17:27:01.547Z,26.43
2023-05-08T17:32:05.781Z,25.91
2023-05-08T17:37:09.795Z,25.46
2023-05-08T17:42:11.510Z,25.24
2023-05-08T17:47:13.618Z,24.96
2023-05-08T17:52:17.743Z,24.66
2023-05-08T17:57:19.474Z,24.50
2023-05-08T18:02:21.182Z,24.22
2023-05-08T18:07:25.347Z,23.95
2023-05-08T18:12:27.067Z,23.64
2023-05-08T18:17:29.628Z,23.26
2023-05-08T18:22:31.367Z,23.04
2023-05-08T18:27:35.639Z,22.80
2023-05-08T18:32:42.101Z,22.57
2023-05-08T18:37:46.073Z,22.32
2023-05-08T18:42:47.853Z,22.05
2023-05-08T18:47:49.707Z,21.82
2023-05-08T18:52:51.504Z,21.57
2023-05-08T18:57:54.132Z,21.37
2023-05-08T19:02:58.163Z,21.09
2023-05-08T19:08:02.651Z,20.83
2023-05-08T19:13:04.533Z,20.61
2023-05-08T19:18:06.591Z,20.54
2023-05-08T19:23:08.315Z,20.51
2023-05-08T19:28:09.981Z,20.50
2023-05-08T19:33:11.817Z,20.41
2023-05-08T19:38:16.089Z,20.20
2023-05-08T19:43:20.000Z,19.99
2023-05-08T19:48:21.995Z,19.75
2023-05-08T19:53:23.850Z,19.52
2023-05-08T19:58:30.546Z,19.35
2023-05-08T20:03:35.410Z,19.22
2023-05-08T20:08:37.165Z,19.10
2023-05-08T20:13:39.328Z,18.91
2023-05-08T20:18:46.234Z,18.72
2023-05-08T20:23:48.369Z,18.58
2023-05-08T20:28:53.422Z,18.49
2023-05-08T20:33:57.660Z,18.28
2023-05-08T20:38:59.327Z,18.38
2023-05-08T20:44:03.281Z,18.39
2023-05-08T20:49:06.044Z,18.33
2023-05-08T20:54:10.112Z,18.22
2023-05-08T20:59:11.948Z,18.11
2023-05-08T21:04:13.675Z,18.01
2023-05-08T21:09:18.006Z,17.93
2023-05-08T21:14:24.591Z,17.81
2023-05-08T21:19:26.290Z,17.75
2023-05-08T21:24:30.414Z,17.62
2023-05-08T21:29:34.925Z,17.54
2023-05-08T21:34:36.646Z,17.40
2023-05-08T21:39:41.328Z,17.18
2023-05-08T21:44:43.202Z,17.00
2023-05-08T21:49:44.907Z,16.88
2023-05-08T21:54:52.453Z,16.79
2023-05-08T21:59:56.657Z,16.71
2023-05-08T22:05:00.812Z,16.72
2023-05-08T22:10:02.523Z,16.70
2023-05-08T22:15:09.447Z,16.73
2023-05-08T22:20:19.814Z,16.73
2023-05-08T22:25:25.231Z,16.67
2023-05-08T22:30:29.271Z,16.59
2023-05-08T22:35:35.725Z,16.47
2023-05-08T22:40:37.416Z,16.45
2023-05-08T22:45:41.482Z,16.38
2023-05-08T22:50:45.699Z,16.34
2023-05-08T22:55:49.734Z,16.27
2023-05-08T23:00:53.850Z,16.20
2023-05-08T23:05:55.658Z,16.09
2023-05-08T23:10:57.370Z,16.01
2023-05-08T23:16:04.370Z,15.92
2023-05-08T23:21:08.664Z,15.83
2023-05-08T23:26:12.617Z,15.77
2023-05-08T23:31:17.072Z,15.73
2023-05-08T23:36:21.246Z,15.63
2023-05-08T23:41:26.193Z,15.55
2023-05-08T23:46:28.007Z,15.45
2023-05-08T23:51:29.739Z,15.33
2023-05-08T23:56:35.957Z,15.20
